createdAt,value
2022-08-28T00:00:30.174Z,8.25
2022-08-28T00:02:59.082Z,7.47
2022-08-28T00:05:30.514Z,6.70
2022-08-28T00:07:59.744Z,6.88
2022-08-28T00:10:28.863Z,7.13
2022-08-28T00:12:58.258Z,7.50
2022-08-28T00:15:31.620Z,7.50
2022-08-28T00:18:00.809Z,7.70
2022-08-28T00:20:29.490Z,7.07
2022-08-28T00:22:58.045Z,7.22
2022-08-28T00:25:28.101Z,7.45
2022-08-28T00:27:57.752Z,8.18
2022-08-28T00:30:30.352Z,7.68
2022-08-28T00:33:02.445Z,8.32
2022-08-28T00:35:30.805Z,7.50
2022-08-28T00:37:59.426Z,7.18
2022-08-28T00:40:32.867Z,8.20
2022-08-28T00:43:03.224Z,8.20
2022-08-28T00:45:38.763Z,8.07
2022-08-28T00:48:09.474Z,8.45
2022-08-28T00:50:52.256Z,8.40
2022-08-28T00:53:23.489Z,8.57
2022-08-28T00:55:55.190Z,8.35
2022-08-28T00:58:23.351Z,8.13
2022-08-28T01:00:51.656Z,9.15
2022-08-28T01:03:21.682Z,9.32
2022-08-28T01:05:53.574Z,8.85
2022-08-28T01:08:21.706Z,9.80
2022-08-28T01:10:55.453Z,10.57
2022-08-28T01:13:26.853Z,10.45
2022-08-28T01:15:56.254Z,9.32
2022-08-28T01:18:27.752Z,10.15
2022-08-28T01:21:02.569Z,9.60
2022-08-28T01:23:46.203Z,10.13
2022-08-28T01:26:14.433Z,9.95
2022-08-28T01:28:42.536Z,10.23
2022-08-28T01:31:11.788Z,11.27
2022-08-28T01:33:42.531Z,10.80
2022-08-28T01:36:12.429Z,11.18
2022-08-28T01:38:43.574Z,11.40
2022-08-28T01:41:14.023Z,10.40
2022-08-28T01:43:43.955Z,10.90
2022-08-28T01:46:13.120Z,11.10
2022-08-28T01:48:44.213Z,10.27
2022-08-28T01:51:13.307Z,10.77
2022-08-28T01:53:45.132Z,11.18
2022-08-28T01:56:16.708Z,10.52
2022-08-28T01:58:44.971Z,10.73
2022-08-28T02:01:14.964Z,10.90
2022-08-28T02:03:43.813Z,10.18
2022-08-28T02:06:12.559Z,10.40
2022-08-28T02:08:42.177Z,10.55
2022-08-28T02:12:02.752Z,9.90
2022-08-28T02:14:31.440Z,9.88
2022-08-28T02:16:59.750Z,10.45
2022-08-28T02:19:27.909Z,10.52
2022-08-28T02:21:55.941Z,10.38
2022-08-28T02:24:25.442Z,10.95
2022-08-28T02:26:53.467Z,9.82
2022-08-28T02:29:48.777Z,10.13
2022-08-28T02:32:17.335Z,10.55
2022-08-28T02:34:45.717Z,11.38
2022-08-28T02:37:15.132Z,10.40
2022-08-28T02:39:44.858Z,10.35
2022-08-28T02:42:12.989Z,10.98
2022-08-28T02:44:43.354Z,10.80
2022-08-28T02:47:11.460Z,10.50
2022-08-28T02:49:39.433Z,9.63
2022-08-28T02:52:07.822Z,10.30
2022-08-28T02:54:37.477Z,10.18
2022-08-28T02:57:08.220Z,9.77
2022-08-28T02:59:36.445Z,8.85
2022-08-28T03:02:07.246Z,9.48
2022-08-28T03:05:20.935Z,9.38
2022-08-28T03:07:49.555Z,9.63
2022-08-28T03:10:18.436Z,9.07
2022-08-28T03:12:48.235Z,9.35
2022-08-28T03:15:18.048Z,9.68
2022-08-28T03:17:46.198Z,9.98
2022-08-28T03:20:16.751Z,9.50
2022-08-28T03:23:02.192Z,10.10
2022-08-28T03:25:30.430Z,9.65
2022-08-28T03:27:59.870Z,9.93
2022-08-28T03:30:28.098Z,9.85
2022-08-28T03:32:56.164Z,9.80
2022-08-28T03:35:24.269Z,9.52
2022-08-28T03:37:52.310Z,10.35
2022-08-28T03:40:21.501Z,9.75
2022-08-28T03:42:53.226Z,9.77
2022-08-28T03:45:23.298Z,9.43
2022-08-28T03:47:51.607Z,9.50
2022-08-28T03:50:19.946Z,9.40
2022-08-28T03:52:48.003Z,8.90
2022-08-28T03:55:18.878Z,9.02
2022-08-28T03:57:46.968Z,9.65
2022-08-28T04:00:34.798Z,8.68
2022-08-28T04:03:03.045Z,9.10
2022-08-28T04:05:31.205Z,8.15
2022-08-28T04:07:59.332Z,8.55
2022-08-28T04:10:27.348Z,8.70
2022-08-28T04:12:55.644Z,8.85
2022-08-28T04:15:23.688Z,8.40
2022-08-28T04:17:53.220Z,9.02
2022-08-28T04:20:21.712Z,9.10
2022-08-28T04:22:50.082Z,9.52
2022-08-28T04:25:24.128Z,10.13
2022-08-28T04:27:53.475Z,9.70
2022-08-28T04:30:21.694Z,9.48
2022-08-28T04:32:49.720Z,9.20
2022-08-28T04:35:41.977Z,9.30
2022-08-28T04:38:13.254Z,9.27
2022-08-28T04:40:42.115Z,9.07
2022-08-28T04:43:11.050Z,8.65
2022-08-28T04:45:40.779Z,8.48
2022-08-28T04:48:10.504Z,8.95
2022-08-28T04:50:43.664Z,8.20
2022-08-28T04:53:12.830Z,8.00
2022-08-28T04:58:49.711Z,7.32
2022-08-28T05:01:20.015Z,7.57
2022-08-28T05:03:49.436Z,7.53
2022-08-28T05:06:18.858Z,7.85
2022-08-28T05:08:46.946Z,8.20
2022-08-28T05:11:32.835Z,8.27
2022-08-28T05:14:15.955Z,7.20
2022-08-28T05:16:47.681Z,7.55
2022-08-28T05:19:16.664Z,7.13
2022-08-28T05:21:46.155Z,7.38
2022-08-28T05:24:14.398Z,7.65
2022-08-28T05:26:42.907Z,7.03
2022-08-28T05:29:12.006Z,8.00
2022-08-28T05:31:44.496Z,7.70
2022-08-28T05:34:15.510Z,8.25
2022-08-28T05:36:44.963Z,7.70
2022-08-28T05:39:14.615Z,7.25
2022-08-28T05:41:45.470Z,7.85
2022-08-28T05:44:17.484Z,8.13
2022-08-28T05:46:48.700Z,7.45
2022-08-28T05:49:18.296Z,8.40
2022-08-28T05:51:47.932Z,8.50
2022-08-28T05:54:17.018Z,9.43
2022-08-28T05:56:46.524Z,8.77
2022-08-28T05:59:16.176Z,7.82
2022-08-28T06:01:46.465Z,8.25
2022-08-28T06:04:18.663Z,7.95
2022-08-28T06:06:49.449Z,7.50
2022-08-28T06:09:19.522Z,7.85
2022-08-28T06:11:48.902Z,7.80
2022-08-28T06:14:20.811Z,7.65
2022-08-28T06:16:50.643Z,8.30
2022-08-28T06:19:19.679Z,8.07
2022-08-28T06:21:51.529Z,8.25
2022-08-28T06:24:20.070Z,8.43
2022-08-28T06:26:48.140Z,8.65
2022-08-28T06:29:21.125Z,8.05
2022-08-28T06:31:55.251Z,8.13
2022-08-28T06:34:23.683Z,8.85
2022-08-28T06:36:54.349Z,8.27
2022-08-28T06:39:23.665Z,8.32
2022-08-28T06:41:51.799Z,8.93
2022-08-28T06:44:21.873Z,7.90
2022-08-28T06:46:51.223Z,8.90
2022-08-28T06:49:20.115Z,8.23
2022-08-28T06:51:48.609Z,8.13
2022-08-28T06:54:23.011Z,8.30
2022-08-28T06:56:52.037Z,9.27
2022-08-28T06:59:20.177Z,8.43
2022-08-28T07:01:48.400Z,8.82
2022-08-28T07:04:16.554Z,8.75
2022-08-28T07:06:47.108Z,10.18
2022-08-28T07:09:18.046Z,8.95
2022-08-28T07:11:47.385Z,8.70
2022-08-28T07:14:15.815Z,8.93
2022-08-28T07:16:44.647Z,8.77
2022-08-28T07:19:14.014Z,9.15
2022-08-28T07:21:44.458Z,9.15
2022-08-28T07:24:14.752Z,7.97
2022-08-28T07:26:44.931Z,8.93
2022-08-28T07:29:14.458Z,8.43
2022-08-28T07:31:45.418Z,8.55
2022-08-28T07:34:14.863Z,9.18
2022-08-28T07:36:43.681Z,9.52
2022-08-28T07:39:13.305Z,9.23
2022-08-28T07:41:43.637Z,11.25
2022-08-28T07:44:31.425Z,8.25
2022-08-28T07:47:02.257Z,9.30
2022-08-28T07:49:31.443Z,10.48
2022-08-28T07:51:59.511Z,8.73
2022-08-28T07:54:27.792Z,9.07
2022-08-28T07:56:57.263Z,8.13
2022-08-28T07:59:25.518Z,8.90
2022-08-28T08:01:54.268Z,8.73
2022-08-28T08:04:24.389Z,8.77
2022-08-28T08:06:57.863Z,8.20
2022-08-28T08:09:27.263Z,8.32
2022-08-28T08:11:59.001Z,8.40
2022-08-28T08:14:27.145Z,8.27
2022-08-28T08:16:55.197Z,8.32
2022-08-28T08:19:23.362Z,8.27
2022-08-28T08:21:55.045Z,8.18
2022-08-28T08:24:26.562Z,7.75
2022-08-28T08:27:00.920Z,7.80
2022-08-28T08:29:31.927Z,7.82
2022-08-28T08:32:05.079Z,7.18
2022-08-28T08:34:34.875Z,7.15
2022-08-28T08:37:03.069Z,7.20
2022-08-28T08:39:31.842Z,7.40
2022-08-28T08:42:06.860Z,7.00
2022-08-28T08:44:37.955Z,6.63
2022-08-28T08:47:15.126Z,6.78
2022-08-28T08:49:49.964Z,7.85
2022-08-28T08:52:35.987Z,6.68
2022-08-28T08:55:31.581Z,6.90
2022-08-28T08:58:08.191Z,6.97
2022-08-28T09:00:41.386Z,6.70
2022-08-28T09:03:15.505Z,7.40
2022-08-28T09:05:53.385Z,8.15
2022-08-28T09:08:37.821Z,7.05
2022-08-28T09:11:18.192Z,7.57
2022-08-28T09:13:54.526Z,6.47
2022-08-28T09:16:31.257Z,6.75
2022-08-28T09:19:01.039Z,7.00
2022-08-28T09:21:32.236Z,6.30
2022-08-28T09:24:07.281Z,7.25
2022-08-28T09:26:45.190Z,6.13
2022-08-28T09:29:26.697Z,6.32
2022-08-28T09:31:55.282Z,6.32
2022-08-28T09:34:38.586Z,5.47
2022-08-28T09:37:09.674Z,6.95
2022-08-28T09:39:45.595Z,6.10
2022-08-28T09:42:40.135Z,5.82
2022-08-28T09:45:23.509Z,6.35
2022-08-28T09:47:53.439Z,6.28
2022-08-28T09:50:31.479Z,6.38
2022-08-28T09:53:15.691Z,6.20
2022-08-28T09:55:54.918Z,6.15
2022-08-28T09:58:24.345Z,5.78
2022-08-28T10:00:58.141Z,5.78
2022-08-28T10:03:31.799Z,5.78
2022-08-28T10:06:07.321Z,6.18
2022-08-28T10:08:50.929Z,5.68
2022-08-28T10:11:25.944Z,7.25
2022-08-28T10:14:06.791Z,6.03
2022-08-28T10:16:47.955Z,5.40
2022-08-28T10:19:29.078Z,5.57
2022-08-28T10:22:06.355Z,5.55
2022-08-28T10:24:49.015Z,5.50
2022-08-28T10:27:30.218Z,5.13
2022-08-28T10:30:12.416Z,5.10
2022-08-28T10:33:07.550Z,5.05
2022-08-28T10:35:45.289Z,5.43
2022-08-28T10:38:17.479Z,5.28
2022-08-28T10:40:54.503Z,4.82
2022-08-28T10:43:30.490Z,5.25
2022-08-28T10:46:02.117Z,5.80
2022-08-28T10:48:36.656Z,5.00
2022-08-28T10:51:11.874Z,5.30
2022-08-28T10:53:45.380Z,5.32
2022-08-28T10:56:18.468Z,5.20
2022-08-28T10:58:50.617Z,5.20
2022-08-28T11:01:27.259Z,5.20
2022-08-28T11:03:59.733Z,5.82
2022-08-28T11:06:33.413Z,4.63
2022-08-28T11:09:24.860Z,5.60
2022-08-28T11:12:01.076Z,6.90
2022-08-28T11:14:33.847Z,5.45
2022-08-28T11:17:06.498Z,5.72
2022-08-28T11:19:57.031Z,5.32
2022-08-28T11:22:28.086Z,5.68
2022-08-28T11:25:07.785Z,5.05
2022-08-28T11:27:39.263Z,4.60
2022-08-28T11:30:32.826Z,4.85
2022-08-28T11:33:10.627Z,4.85
2022-08-28T11:35:45.108Z,4.68
2022-08-28T11:38:17.346Z,6.13
2022-08-28T11:40:58.045Z,5.82
2022-08-28T11:43:35.939Z,6.10
2022-08-28T11:46:14.319Z,5.43
2022-08-28T11:48:50.833Z,5.20
2022-08-28T11:51:41.075Z,4.63
2022-08-28T11:54:23.966Z,5.88
2022-08-28T11:57:01.417Z,5.90
2022-08-28T11:59:59.839Z,5.53
2022-08-28T12:02:53.228Z,4.45
2022-08-28T12:05:49.773Z,4.70
2022-08-28T12:09:10.231Z,4.20
2022-08-28T12:12:00.611Z,5.35
2022-08-28T12:15:02.389Z,4.45
2022-08-28T12:17:51.750Z,6.05
2022-08-28T12:20:36.941Z,4.13
2022-08-28T12:23:22.501Z,4.25
2022-08-28T12:25:51.696Z,4.50
2022-08-28T12:28:27.340Z,4.65
2022-08-28T12:31:00.739Z,4.20
2022-08-28T12:33:36.740Z,4.50
2022-08-28T12:36:07.534Z,4.18
2022-08-28T12:38:36.366Z,4.18
2022-08-28T12:41:05.121Z,5.00
2022-08-28T12:43:41.718Z,4.63
2022-08-28T12:46:20.076Z,4.78
2022-08-28T12:48:53.114Z,5.03
2022-08-28T12:51:22.867Z,4.43
2022-08-28T12:53:53.241Z,4.20
2022-08-28T12:56:23.368Z,4.57
2022-08-28T12:58:52.933Z,4.80
2022-08-28T13:01:29.026Z,4.68
2022-08-28T13:04:00.264Z,4.90
2022-08-28T13:06:31.431Z,5.35
2022-08-28T13:09:02.525Z,5.78
2022-08-28T13:11:35.057Z,6.10
2022-08-28T13:14:05.487Z,4.97
2022-08-28T13:16:40.664Z,4.97
2022-08-28T13:19:29.385Z,5.22
2022-08-28T13:22:02.042Z,4.80
2022-08-28T13:24:43.589Z,4.95
2022-08-28T13:27:24.669Z,4.85
2022-08-28T13:30:01.573Z,5.30
2022-08-28T13:32:30.933Z,4.85
2022-08-28T13:35:16.885Z,4.53
2022-08-28T13:37:48.115Z,6.25
2022-08-28T13:40:45.909Z,4.82
2022-08-28T13:43:10.155Z,4.85
2022-08-28T13:45:43.947Z,5.03
2022-08-28T13:48:13.351Z,5.00
2022-08-28T13:50:47.184Z,4.97
2022-08-28T13:53:16.915Z,4.63
2022-08-28T13:55:45.063Z,6.00
2022-08-28T13:58:31.734Z,5.00
2022-08-28T14:01:01.758Z,5.25
2022-08-28T14:03:39.129Z,5.68
2022-08-28T14:06:11.534Z,8.05
2022-08-28T14:08:40.062Z,7.20
2022-08-28T14:11:08.375Z,7.20
2022-08-28T14:13:47.461Z,7.75
2022-08-28T14:16:26.396Z,5.45
2022-08-28T14:18:55.194Z,6.32
2022-08-28T14:21:24.538Z,5.75
2022-08-28T14:23:52.863Z,5.82
2022-08-28T14:26:21.155Z,5.68
2022-08-28T14:28:49.351Z,5.75
2022-08-28T14:31:17.828Z,4.82
2022-08-28T14:33:47.510Z,5.53
2022-08-28T14:36:17.555Z,4.80
2022-08-28T14:38:45.817Z,5.32
2022-08-28T14:41:14.915Z,5.55
2022-08-28T14:43:43.138Z,5.00
2022-08-28T14:46:16.380Z,5.55
2022-08-28T14:48:44.942Z,4.90
2022-08-28T14:51:17.623Z,4.60
2022-08-28T14:53:46.072Z,5.05
2022-08-28T14:56:16.507Z,4.70
2022-08-28T14:58:48.085Z,4.20
2022-08-28T15:01:23.769Z,4.72
2022-08-28T15:03:54.285Z,5.20
2022-08-28T15:06:24.317Z,4.68
2022-08-28T15:08:55.705Z,4.82
2022-08-28T15:11:26.091Z,5.03
2022-08-28T15:13:55.175Z,4.40
2022-08-28T15:16:29.901Z,4.93
2022-08-28T15:18:59.993Z,5.07
2022-08-28T15:21:33.213Z,4.78
2022-08-28T15:24:04.028Z,4.28
2022-08-28T15:26:32.763Z,4.70
2022-08-28T15:29:03.473Z,5.00
2022-08-28T15:31:33.271Z,4.57
2022-08-28T15:34:04.780Z,5.10
2022-08-28T15:36:43.879Z,4.93
2022-08-28T15:39:30.394Z,4.40
2022-08-28T15:41:59.285Z,4.90
2022-08-28T15:44:28.177Z,5.07
2022-08-28T15:46:58.301Z,4.70
2022-08-28T15:49:28.090Z,4.40
2022-08-28T15:51:58.727Z,4.65
2022-08-28T15:54:27.781Z,4.20
2022-08-28T15:56:55.916Z,4.20
2022-08-28T15:59:24.187Z,4.20
2022-08-28T16:02:12.549Z,4.32
2022-08-28T16:04:40.875Z,4.10
2022-08-28T16:07:11.176Z,4.40
2022-08-28T16:09:39.239Z,4.97
2022-08-28T16:12:07.572Z,4.38
2022-08-28T16:14:36.276Z,4.97
2022-08-28T16:17:11.127Z,4.75
2022-08-28T16:19:40.198Z,4.50
2022-08-28T16:22:09.984Z,4.60
2022-08-28T16:24:38.442Z,4.18
2022-08-28T16:27:09.647Z,4.60
2022-08-28T16:29:40.895Z,4.03
2022-08-28T16:32:09.005Z,4.60
2022-08-28T16:34:40.041Z,4.07
2022-08-28T16:37:08.654Z,4.55
2022-08-28T16:39:51.589Z,4.57
2022-08-28T16:42:30.892Z,5.05
2022-08-28T16:45:01.415Z,4.78
2022-08-28T16:47:31.520Z,4.70
2022-08-28T16:50:00.500Z,4.35
2022-08-28T16:52:28.878Z,5.70
2022-08-28T16:54:59.647Z,5.18
2022-08-28T16:57:28.025Z,5.43
2022-08-28T16:59:56.884Z,6.47
2022-08-28T17:02:26.690Z,7.47
2022-08-28T17:04:58.184Z,4.70
2022-08-28T17:07:26.300Z,4.95
2022-08-28T17:09:54.337Z,5.18
2022-08-28T17:12:26.518Z,4.70
2022-08-28T17:14:56.450Z,5.25
2022-08-28T17:17:25.264Z,5.40
2022-08-28T17:19:53.422Z,5.30
2022-08-28T17:22:32.659Z,5.38
2022-08-28T17:25:03.073Z,5.35
2022-08-28T17:27:33.101Z,5.68
2022-08-28T17:30:05.095Z,5.03
2022-08-28T17:32:33.487Z,5.10
2022-08-28T17:35:01.923Z,4.72
2022-08-28T17:37:31.746Z,4.53
2022-08-28T17:39:59.954Z,4.50
2022-08-28T17:42:28.143Z,4.60
2022-08-28T17:44:57.539Z,4.50
2022-08-28T17:47:30.652Z,4.32
2022-08-28T17:49:59.916Z,4.00
2022-08-28T17:52:28.222Z,4.63
2022-08-28T17:54:56.919Z,4.57
2022-08-28T17:57:25.361Z,4.70
2022-08-28T17:59:54.075Z,4.93
2022-08-28T18:02:23.486Z,5.00
2022-08-28T18:04:51.632Z,5.45
2022-08-28T18:07:19.750Z,4.45
2022-08-28T18:09:51.691Z,5.15
2022-08-28T18:12:19.815Z,4.80
2022-08-28T18:14:47.977Z,4.80
2022-08-28T18:17:19.223Z,5.10
2022-08-28T18:19:48.845Z,4.95
2022-08-28T18:22:16.858Z,4.57
2022-08-28T18:24:45.080Z,4.78
2022-08-28T18:27:31.744Z,4.28
2022-08-28T18:30:00.000Z,4.25
2022-08-28T18:32:28.072Z,4.82
2022-08-28T18:34:57.790Z,4.32
2022-08-28T18:37:26.393Z,4.38
2022-08-28T18:39:54.791Z,4.20
2022-08-28T18:42:27.649Z,4.25
2022-08-28T18:44:56.922Z,4.18
2022-08-28T18:47:25.043Z,5.30
2022-08-28T18:49:53.534Z,3.85
2022-08-28T18:52:22.927Z,4.07
2022-08-28T18:54:54.078Z,3.58
2022-08-28T18:57:31.851Z,3.78
2022-08-28T19:00:00.641Z,3.95
2022-08-28T19:02:29.192Z,3.10
2022-08-28T19:04:57.643Z,3.28
2022-08-28T19:07:27.699Z,3.53
2022-08-28T19:09:57.193Z,3.35
2022-08-28T19:12:28.350Z,3.33
2022-08-28T19:14:57.742Z,3.05
2022-08-28T19:17:27.095Z,2.85
2022-08-28T19:19:55.509Z,3.05
2022-08-28T19:22:24.195Z,3.08
2022-08-28T19:24:55.651Z,2.80
2022-08-28T19:27:26.273Z,3.00
2022-08-28T19:29:55.296Z,2.88
2022-08-28T19:32:27.073Z,3.13
2022-08-28T19:34:57.277Z,2.78
2022-08-28T19:37:25.895Z,2.50
2022-08-28T19:40:07.060Z,2.70
2022-08-28T19:42:36.133Z,2.90
2022-08-28T19:45:05.179Z,2.80
2022-08-28T19:47:35.536Z,2.83
2022-08-28T19:50:05.165Z,2.72
2022-08-28T19:52:34.732Z,2.45
2022-08-28T19:55:06.016Z,2.80
2022-08-28T19:57:34.684Z,2.55
2022-08-28T20:00:03.701Z,2.42
2022-08-28T20:02:32.548Z,2.70
2022-08-28T20:05:00.625Z,2.70
2022-08-28T20:07:28.875Z,2.75
2022-08-28T20:09:56.956Z,2.60
2022-08-28T20:12:26.446Z,2.80
2022-08-28T20:14:59.038Z,2.75
2022-08-28T20:17:31.106Z,2.88
2022-08-28T20:20:03.054Z,2.90
2022-08-28T20:22:32.269Z,2.90
2022-08-28T20:25:01.229Z,2.53
2022-08-28T20:27:31.196Z,2.83
2022-08-28T20:30:00.624Z,2.58
2022-08-28T20:32:40.870Z,2.70
2022-08-28T20:35:11.546Z,2.90
2022-08-28T20:37:45.042Z,2.70
2022-08-28T20:40:16.578Z,2.60
2022-08-28T20:42:46.760Z,2.90
2022-08-28T20:45:16.164Z,2.80
2022-08-28T20:47:44.413Z,2.90
2022-08-28T20:50:13.894Z,3.03
2022-08-28T20:52:42.036Z,2.60
2022-08-28T20:55:13.135Z,3.00
2022-08-28T20:57:41.722Z,3.45
2022-08-28T21:00:12.916Z,2.83
2022-08-28T21:02:41.580Z,2.65
2022-08-28T21:05:10.147Z,2.78
2022-08-28T21:07:38.306Z,2.75
2022-08-28T21:10:08.163Z,2.75
2022-08-28T21:12:36.784Z,3.40
2022-08-28T21:15:05.516Z,3.30
2022-08-28T21:17:35.099Z,3.10
2022-08-28T21:20:06.144Z,3.10
2022-08-28T21:22:36.055Z,3.20
2022-08-28T21:25:06.391Z,3.15
2022-08-28T21:27:34.890Z,3.10
2022-08-28T21:30:03.300Z,3.22
2022-08-28T21:32:32.737Z,2.90
2022-08-28T21:35:02.463Z,2.75
2022-08-28T21:37:31.255Z,3.38
2022-08-28T21:39:59.608Z,3.35
2022-08-28T21:42:28.270Z,3.42
2022-08-28T21:44:56.567Z,2.97
2022-08-28T21:47:25.937Z,2.95
2022-08-28T21:49:56.125Z,3.50
2022-08-28T21:52:27.410Z,3.00
2022-08-28T21:54:58.554Z,3.45
2022-08-28T21:57:27.776Z,2.90
2022-08-28T21:59:56.067Z,3.33
2022-08-28T22:02:24.499Z,2.78
2022-08-28T22:04:53.863Z,3.05
2022-08-28T22:07:22.207Z,3.20
2022-08-28T22:09:51.940Z,3.47
2022-08-28T22:12:20.252Z,3.25
2022-08-28T22:14:48.275Z,3.42
2022-08-28T22:17:16.463Z,3.50
2022-08-28T22:19:46.837Z,3.50
2022-08-28T22:22:33.123Z,3.60
2022-08-28T22:25:02.783Z,3.80
2022-08-28T22:27:31.941Z,3.60
2022-08-28T22:30:00.223Z,3.65
2022-08-28T22:32:28.286Z,3.88
2022-08-28T22:34:56.388Z,3.70
2022-08-28T22:37:25.913Z,3.78
2022-08-28T22:39:54.226Z,3.70
2022-08-28T22:42:23.686Z,3.95
2022-08-28T22:44:51.914Z,3.53
2022-08-28T22:47:20.199Z,4.00
2022-08-28T22:49:48.667Z,4.25
2022-08-28T22:52:16.895Z,4.25
2022-08-28T22:54:45.005Z,4.32
2022-08-28T22:57:12.982Z,4.95
2022-08-28T22:59:42.586Z,5.10
2022-08-28T23:02:12.183Z,5.40
2022-08-28T23:04:40.794Z,5.57
2022-08-28T23:07:08.968Z,5.35
2022-08-28T23:09:37.331Z,5.18
2022-08-28T23:12:08.438Z,5.22
2022-08-28T23:14:36.638Z,5.47
2022-08-28T23:17:06.034Z,4.93
2022-08-28T23:19:34.684Z,5.20
2022-08-28T23:22:02.714Z,5.10
2022-08-28T23:24:31.458Z,5.68
2022-08-28T23:27:13.981Z,5.80
2022-08-28T23:29:47.787Z,6.00
2022-08-28T23:32:23.078Z,6.93
2022-08-28T23:34:51.910Z,6.45
2022-08-28T23:37:20.112Z,7.00
2022-08-28T23:39:48.144Z,7.10
2022-08-28T23:42:16.237Z,7.68
2022-08-28T23:44:44.436Z,8.45
2022-08-28T23:47:13.891Z,8.80
2022-08-28T23:49:43.362Z,9.43
2022-08-28T23:52:12.261Z,10.13
2022-08-28T23:54:40.371Z,9.82
2022-08-28T23:57:10.994Z,10.32
2022-08-28T23:59:39.238Z,10.48
